sensor_id;sensor_type;location;lat;lon;timestamp;temperature;humidity
1413;DHT22;701;52.526;13.408;2023-12-04T00:02:16;-1.40;26.70
1413;DHT22;701;52.526;13.408;2023-12-04T00:04:42;-1.40;26.90
1413;DHT22;701;52.526;13.408;2023-12-04T00:07:07;-1.40;27.10
1413;DHT22;701;52.526;13.408;2023-12-04T00:09:33;-1.40;27.50
1413;DHT22;701;52.526;13.408;2023-12-04T00:11:59;-1.40;27.80
1413;DHT22;701;52.526;13.408;2023-12-04T00:14:24;-1.40;27.80
1413;DHT22;701;52.526;13.408;2023-12-04T00:16:50;-1.50;27.80
1413;DHT22;701;52.526;13.408;2023-12-04T00:19:16;-1.50;27.70
1413;DHT22;701;52.526;13.408;2023-12-04T00:21:41;-1.50;27.80
1413;DHT22;701;52.526;13.408;2023-12-04T00:24:07;-1.50;28.00
1413;DHT22;701;52.526;13.408;2023-12-04T00:26:33;-1.50;27.80
1413;DHT22;701;52.526;13.408;2023-12-04T00:28:58;-1.50;28.00
1413;DHT22;701;52.526;13.408;2023-12-04T00:31:24;-1.50;27.80
1413;DHT22;701;52.526;13.408;2023-12-04T00:33:50;-1.50;28.00
1413;DHT22;701;52.526;13.408;2023-12-04T00:36:15;-1.60;28.10
1413;DHT22;701;52.526;13.408;2023-12-04T00:38:41;-1.60;28.60
1413;DHT22;701;52.526;13.408;2023-12-04T00:41:07;-1.60;28.50
1413;DHT22;701;52.526;13.408;2023-12-04T00:43:33;-1.60;28.70
1413;DHT22;701;52.526;13.408;2023-12-04T00:45:58;-1.60;28.70
1413;DHT22;701;52.526;13.408;2023-12-04T00:48:24;-1.60;29.00
1413;DHT22;701;52.526;13.408;2023-12-04T00:50:51;-1.60;29.40
1413;DHT22;701;52.526;13.408;2023-12-04T00:53:17;-1.60;29.10
1413;DHT22;701;52.526;13.408;2023-12-04T00:55:42;-1.70;29.10
1413;DHT22;701;52.526;13.408;2023-12-04T00:58:08;-1.70;28.80
1413;DHT22;701;52.526;13.408;2023-12-04T01:00:34;-1.70;29.10
1413;DHT22;701;52.526;13.408;2023-12-04T01:02:59;-1.70;29.10
1413;DHT22;701;52.526;13.408;2023-12-04T01:05:25;-1.70;29.60
1413;DHT22;701;52.526;13.408;2023-12-04T01:07:51;-1.70;29.40
1413;DHT22;701;52.526;13.408;2023-12-04T01:10:17;-1.70;29.40
1413;DHT22;701;52.526;13.408;2023-12-04T01:12:43;-1.80;29.70
1413;DHT22;701;52.526;13.408;2023-12-04T01:15:09;-1.80;29.70
1413;DHT22;701;52.526;13.408;2023-12-04T01:17:35;-1.80;29.60
1413;DHT22;701;52.526;13.408;2023-12-04T01:20:01;-1.80;29.60
1413;DHT22;701;52.526;13.408;2023-12-04T01:22:26;-1.80;29.90
1413;DHT22;701;52.526;13.408;2023-12-04T01:24:52;-1.80;30.10
1413;DHT22;701;52.526;13.408;2023-12-04T01:27:18;-1.80;30.20
1413;DHT22;701;52.526;13.408;2023-12-04T01:29:43;-1.80;30.50
1413;DHT22;701;52.526;13.408;2023-12-04T01:32:09;-1.80;30.90
1413;DHT22;701;52.526;13.408;2023-12-04T01:34:35;-1.90;31.20
1413;DHT22;701;52.526;13.408;2023-12-04T01:37:01;-1.90;31.30
1413;DHT22;701;52.526;13.408;2023-12-04T01:39:26;-1.90;31.40
1413;DHT22;701;52.526;13.408;2023-12-04T01:41:52;-1.90;31.40
1413;DHT22;701;52.526;13.408;2023-12-04T01:44:19;-1.90;31.40
1413;DHT22;701;52.526;13.408;2023-12-04T01:46:44;-2.00;31.30
1413;DHT22;701;52.526;13.408;2023-12-04T01:49:10;-2.00;31.30
1413;DHT22;701;52.526;13.408;2023-12-04T01:51:36;-2.00;31.30
1413;DHT22;701;52.526;13.408;2023-12-04T01:54:03;-1.90;31.40
1413;DHT22;701;52.526;13.408;2023-12-04T01:56:31;-1.90;31.40
1413;DHT22;701;52.526;13.408;2023-12-04T01:58:57;-1.90;31.40
1413;DHT22;701;52.526;13.408;2023-12-04T02:01:23;-1.90;31.40
1413;DHT22;701;52.526;13.408;2023-12-04T02:03:50;-1.80;31.50
1413;DHT22;701;52.526;13.408;2023-12-04T02:06:17;-1.80;31.50
1413;DHT22;701;52.526;13.408;2023-12-04T02:08:46;-1.80;31.50
1413;DHT22;701;52.526;13.408;2023-12-04T02:11:12;-1.80;31.50
1413;DHT22;701;52.526;13.408;2023-12-04T02:13:38;-1.70;31.60
1413;DHT22;701;52.526;13.408;2023-12-04T02:16:05;-1.80;31.50
1413;DHT22;701;52.526;13.408;2023-12-04T02:18:35;-1.70;32.30
1413;DHT22;701;52.526;13.408;2023-12-04T02:21:01;-1.70;31.50
1413;DHT22;701;52.526;13.408;2023-12-04T02:23:27;-1.70;31.50
1413;DHT22;701;52.526;13.408;2023-12-04T02:26:01;-1.70;31.60
1413;DHT22;701;52.526;13.408;2023-12-04T02:28:33;-1.70;31.50
1413;DHT22;701;52.526;13.408;2023-12-04T02:30:59;-1.70;31.50
1413;DHT22;701;52.526;13.408;2023-12-04T02:33:26;-1.70;31.60
1413;DHT22;701;52.526;13.408;2023-12-04T02:35:53;-1.70;31.50
1413;DHT22;701;52.526;13.408;2023-12-04T02:38:21;-1.70;31.60
1413;DHT22;701;52.526;13.408;2023-12-04T02:40:46;-1.70;31.50
1413;DHT22;701;52.526;13.408;2023-12-04T02:43:12;-1.70;31.50
1413;DHT22;701;52.526;13.408;2023-12-04T02:45:38;-1.70;31.60
1413;DHT22;701;52.526;13.408;2023-12-04T02:48:04;-1.80;31.50
1413;DHT22;701;52.526;13.408;2023-12-04T02:50:30;-1.80;31.40
1413;DHT22;701;52.526;13.408;2023-12-04T02:52:56;-1.80;31.30
1413;DHT22;701;52.526;13.408;2023-12-04T02:55:21;-1.80;31.40
1413;DHT22;701;52.526;13.408;2023-12-04T02:57:47;-1.80;31.50
1413;DHT22;701;52.526;13.408;2023-12-04T03:00:13;-1.90;31.10
1413;DHT22;701;52.526;13.408;2023-12-04T03:02:39;-1.90;31.00
1413;DHT22;701;52.526;13.408;2023-12-04T03:05:04;-1.80;30.90
1413;DHT22;701;52.526;13.408;2023-12-04T03:07:31;-1.90;30.70
1413;DHT22;701;52.526;13.408;2023-12-04T03:09:56;-1.90;30.80
1413;DHT22;701;52.526;13.408;2023-12-04T03:12:22;-1.90;30.70
1413;DHT22;701;52.526;13.408;2023-12-04T03:14:48;-1.90;30.60
1413;DHT22;701;52.526;13.408;2023-12-04T03:17:13;-1.90;31.20
1413;DHT22;701;52.526;13.408;2023-12-04T03:19:39;-1.90;30.50
1413;DHT22;701;52.526;13.408;2023-12-04T03:22:04;-1.90;30.60
1413;DHT22;701;52.526;13.408;2023-12-04T03:24:30;-1.90;30.60
1413;DHT22;701;52.526;13.408;2023-12-04T03:26:56;-1.90;30.70
1413;DHT22;701;52.526;13.408;2023-12-04T03:29:22;-1.90;30.80
1413;DHT22;701;52.526;13.408;2023-12-04T03:31:48;-1.90;31.30
1413;DHT22;701;52.526;13.408;2023-12-04T03:34:13;-1.90;31.00
1413;DHT22;701;52.526;13.408;2023-12-04T03:36:39;-1.90;30.90
1413;DHT22;701;52.526;13.408;2023-12-04T03:39:05;-1.90;30.70
1413;DHT22;701;52.526;13.408;2023-12-04T03:41:30;-1.80;30.70
1413;DHT22;701;52.526;13.408;2023-12-04T03:43:56;-1.80;30.50
1413;DHT22;701;52.526;13.408;2023-12-04T03:46:21;-1.80;30.30
1413;DHT22;701;52.526;13.408;2023-12-04T03:48:47;-1.80;30.00
1413;DHT22;701;52.526;13.408;2023-12-04T03:51:13;-1.80;29.90
1413;DHT22;701;52.526;13.408;2023-12-04T03:53:38;-1.80;29.70
1413;DHT22;701;52.526;13.408;2023-12-04T03:56:04;-1.80;29.50
1413;DHT22;701;52.526;13.408;2023-12-04T03:58:30;-1.70;29.60
1413;DHT22;701;52.526;13.408;2023-12-04T04:00:57;-1.70;29.10
1413;DHT22;701;52.526;13.408;2023-12-04T04:03:22;-1.80;29.00
1413;DHT22;701;52.526;13.408;2023-12-04T04:05:48;-1.80;29.10
1413;DHT22;701;52.526;13.408;2023-12-04T04:08:14;-1.80;29.10
1413;DHT22;701;52.526;13.408;2023-12-04T04:10:39;-1.70;29.10
1413;DHT22;701;52.526;13.408;2023-12-04T04:13:05;-1.70;28.80
1413;DHT22;701;52.526;13.408;2023-12-04T04:15:31;-1.70;28.30
1413;DHT22;701;52.526;13.408;2023-12-04T04:17:57;-1.60;28.00
1413;DHT22;701;52.526;13.408;2023-12-04T04:20:23;-1.60;28.00
1413;DHT22;701;52.526;13.408;2023-12-04T04:22:48;-1.60;28.00
1413;DHT22;701;52.526;13.408;2023-12-04T04:25:15;-1.60;27.80
1413;DHT22;701;52.526;13.408;2023-12-04T04:27:41;-1.60;27.50
1413;DHT22;701;52.526;13.408;2023-12-04T04:30:07;-1.70;27.50
1413;DHT22;701;52.526;13.408;2023-12-04T04:32:33;-1.70;27.30
1413;DHT22;701;52.526;13.408;2023-12-04T04:34:59;-1.70;27.10
1413;DHT22;701;52.526;13.408;2023-12-04T04:37:25;-1.70;27.10
1413;DHT22;701;52.526;13.408;2023-12-04T04:39:51;-1.70;26.80
1413;DHT22;701;52.526;13.408;2023-12-04T04:42:17;-1.70;27.00
1413;DHT22;701;52.526;13.408;2023-12-04T04:44:42;-1.70;27.00
1413;DHT22;701;52.526;13.408;2023-12-04T04:47:08;-1.70;27.10
1413;DHT22;701;52.526;13.408;2023-12-04T04:49:34;-1.80;26.90
1413;DHT22;701;52.526;13.408;2023-12-04T04:51:59;-1.70;26.80
1413;DHT22;701;52.526;13.408;2023-12-04T04:54:25;-1.70;26.80
1413;DHT22;701;52.526;13.408;2023-12-04T04:56:51;-1.70;26.70
1413;DHT22;701;52.526;13.408;2023-12-04T04:59:16;-1.70;26.80
1413;DHT22;701;52.526;13.408;2023-12-04T05:01:42;-1.70;26.60
1413;DHT22;701;52.526;13.408;2023-12-04T05:04:08;-1.60;26.40
1413;DHT22;701;52.526;13.408;2023-12-04T05:06:34;-1.60;26.60
1413;DHT22;701;52.526;13.408;2023-12-04T05:08:59;-1.60;26.30
1413;DHT22;701;52.526;13.408;2023-12-04T05:11:25;-1.60;25.80
1413;DHT22;701;52.526;13.408;2023-12-04T05:13:51;-1.60;25.70
1413;DHT22;701;52.526;13.408;2023-12-04T05:16:16;-1.60;25.60
1413;DHT22;701;52.526;13.408;2023-12-04T05:18:42;-1.60;25.60
1413;DHT22;701;52.526;13.408;2023-12-04T05:21:11;-1.60;25.60
1413;DHT22;701;52.526;13.408;2023-12-04T05:23:38;-1.60;25.40
1413;DHT22;701;52.526;13.408;2023-12-04T05:26:04;-1.70;25.30
1413;DHT22;701;52.526;13.408;2023-12-04T05:28:30;-1.70;25.60
1413;DHT22;701;52.526;13.408;2023-12-04T05:30:56;-1.70;25.50
1413;DHT22;701;52.526;13.408;2023-12-04T05:33:21;-1.70;25.50
1413;DHT22;701;52.526;13.408;2023-12-04T05:35:48;-1.80;25.50
1413;DHT22;701;52.526;13.408;2023-12-04T05:38:13;-1.80;25.90
1413;DHT22;701;52.526;13.408;2023-12-04T05:40:40;-1.80;25.90
1413;DHT22;701;52.526;13.408;2023-12-04T05:43:06;-1.80;26.00
1413;DHT22;701;52.526;13.408;2023-12-04T05:45:31;-1.80;26.10
1413;DHT22;701;52.526;13.408;2023-12-04T05:47:57;-1.80;26.00
1413;DHT22;701;52.526;13.408;2023-12-04T05:50:23;-1.80;26.10
1413;DHT22;701;52.526;13.408;2023-12-04T05:52:49;-1.90;26.00
1413;DHT22;701;52.526;13.408;2023-12-04T05:55:15;-1.90;26.00
1413;DHT22;701;52.526;13.408;2023-12-04T05:57:41;-2.00;26.10
1413;DHT22;701;52.526;13.408;2023-12-04T06:00:07;-2.00;26.20
1413;DHT22;701;52.526;13.408;2023-12-04T06:02:42;-2.00;26.40
1413;DHT22;701;52.526;13.408;2023-12-04T06:05:09;-2.00;26.60
1413;DHT22;701;52.526;13.408;2023-12-04T06:07:35;-2.00;26.70
1413;DHT22;701;52.526;13.408;2023-12-04T06:10:02;-2.00;26.80
1413;DHT22;701;52.526;13.408;2023-12-04T06:12:30;-1.90;26.90
1413;DHT22;701;52.526;13.408;2023-12-04T06:14:56;-1.90;27.10
1413;DHT22;701;52.526;13.408;2023-12-04T06:17:21;-1.80;26.90
1413;DHT22;701;52.526;13.408;2023-12-04T06:19:47;-1.70;26.90
1413;DHT22;701;52.526;13.408;2023-12-04T06:22:13;-1.70;26.80
1413;DHT22;701;52.526;13.408;2023-12-04T06:24:39;-1.60;26.70
1413;DHT22;701;52.526;13.408;2023-12-04T06:27:06;-1.50;27.10
1413;DHT22;701;52.526;13.408;2023-12-04T06:29:34;-1.50;26.50
1413;DHT22;701;52.526;13.408;2023-12-04T06:32:01;-1.40;26.00
1413;DHT22;701;52.526;13.408;2023-12-04T06:34:27;-1.30;25.90
1413;DHT22;701;52.526;13.408;2023-12-04T06:36:54;-1.30;25.70
1413;DHT22;701;52.526;13.408;2023-12-04T06:39:20;-1.20;25.50
1413;DHT22;701;52.526;13.408;2023-12-04T06:41:46;-1.10;25.20
1413;DHT22;701;52.526;13.408;2023-12-04T06:44:14;-1.10;25.00
1413;DHT22;701;52.526;13.408;2023-12-04T06:46:41;-1.00;24.90
1413;DHT22;701;52.526;13.408;2023-12-04T06:49:11;-1.00;24.90
1413;DHT22;701;52.526;13.408;2023-12-04T06:51:40;-0.90;25.00
1413;DHT22;701;52.526;13.408;2023-12-04T06:54:05;-0.90;25.00
1413;DHT22;701;52.526;13.408;2023-12-04T06:56:31;-0.80;24.50
1413;DHT22;701;52.526;13.408;2023-12-04T06:58:57;-0.80;24.40
1413;DHT22;701;52.526;13.408;2023-12-04T07:01:22;-0.80;24.30
1413;DHT22;701;52.526;13.408;2023-12-04T07:03:48;-0.70;24.40
1413;DHT22;701;52.526;13.408;2023-12-04T07:06:14;-0.70;24.30
1413;DHT22;701;52.526;13.408;2023-12-04T07:08:40;-0.70;24.10
1413;DHT22;701;52.526;13.408;2023-12-04T07:11:06;-0.70;24.00
1413;DHT22;701;52.526;13.408;2023-12-04T07:13:33;-0.70;23.50
1413;DHT22;701;52.526;13.408;2023-12-04T07:15:59;-0.70;23.60
1413;DHT22;701;52.526;13.408;2023-12-04T07:18:25;-0.70;23.90
1413;DHT22;701;52.526;13.408;2023-12-04T07:20:51;-0.60;23.70
1413;DHT22;701;52.526;13.408;2023-12-04T07:23:17;-0.60;23.50
1413;DHT22;701;52.526;13.408;2023-12-04T07:25:43;-0.60;23.80
1413;DHT22;701;52.526;13.408;2023-12-04T07:28:08;-0.50;23.00
1413;DHT22;701;52.526;13.408;2023-12-04T07:30:34;-0.50;23.10
1413;DHT22;701;52.526;13.408;2023-12-04T07:33:00;-0.50;22.90
1413;DHT22;701;52.526;13.408;2023-12-04T07:35:26;-0.40;23.10
1413;DHT22;701;52.526;13.408;2023-12-04T07:37:52;-0.30;23.00
1413;DHT22;701;52.526;13.408;2023-12-04T07:40:18;-0.30;22.90
1413;DHT22;701;52.526;13.408;2023-12-04T07:42:44;-0.20;22.00
1413;DHT22;701;52.526;13.408;2023-12-04T07:45:10;-0.20;22.00
1413;DHT22;701;52.526;13.408;2023-12-04T07:47:36;-0.10;22.10
1413;DHT22;701;52.526;13.408;2023-12-04T07:50:02;-0.10;22.10
1413;DHT22;701;52.526;13.408;2023-12-04T07:52:28;0.00;21.90
1413;DHT22;701;52.526;13.408;2023-12-04T07:54:53;0.00;21.20
1413;DHT22;701;52.526;13.408;2023-12-04T07:57:19;0.10;21.40
1413;DHT22;701;52.526;13.408;2023-12-04T07:59:45;0.10;21.00
1413;DHT22;701;52.526;13.408;2023-12-04T08:02:11;0.10;21.20
1413;DHT22;701;52.526;13.408;2023-12-04T08:04:36;0.10;21.10
1413;DHT22;701;52.526;13.408;2023-12-04T08:07:02;0.20;21.00
1413;DHT22;701;52.526;13.408;2023-12-04T08:09:28;0.30;20.80
1413;DHT22;701;52.526;13.408;2023-12-04T08:11:54;0.30;20.10
1413;DHT22;701;52.526;13.408;2023-12-04T08:14:19;0.30;20.00
1413;DHT22;701;52.526;13.408;2023-12-04T08:16:45;0.40;19.70
1413;DHT22;701;52.526;13.408;2023-12-04T08:19:11;0.50;20.10
1413;DHT22;701;52.526;13.408;2023-12-04T08:21:37;0.50;19.40
1413;DHT22;701;52.526;13.408;2023-12-04T08:24:03;0.60;19.20
1413;DHT22;701;52.526;13.408;2023-12-04T08:26:28;0.60;19.20
1413;DHT22;701;52.526;13.408;2023-12-04T08:28:54;0.70;19.00
1413;DHT22;701;52.526;13.408;2023-12-04T08:31:20;0.80;19.10
1413;DHT22;701;52.526;13.408;2023-12-04T08:33:45;0.80;19.10
1413;DHT22;701;52.526;13.408;2023-12-04T08:36:12;0.90;19.00
1413;DHT22;701;52.526;13.408;2023-12-04T08:38:38;1.00;18.90
1413;DHT22;701;52.526;13.408;2023-12-04T08:41:04;1.10;18.60
1413;DHT22;701;52.526;13.408;2023-12-04T08:43:30;1.20;18.10
1413;DHT22;701;52.526;13.408;2023-12-04T08:45:56;1.20;17.70
1413;DHT22;701;52.526;13.408;2023-12-04T08:48:21;1.30;17.90
1413;DHT22;701;52.526;13.408;2023-12-04T08:50:47;1.40;17.90
1413;DHT22;701;52.526;13.408;2023-12-04T08:53:14;1.40;17.70
1413;DHT22;701;52.526;13.408;2023-12-04T08:55:40;1.40;17.40
1413;DHT22;701;52.526;13.408;2023-12-04T08:58:06;1.50;17.40
1413;DHT22;701;52.526;13.408;2023-12-04T09:00:32;1.60;16.70
1413;DHT22;701;52.526;13.408;2023-12-04T09:02:58;1.60;17.20
1413;DHT22;701;52.526;13.408;2023-12-04T09:05:24;1.80;16.40
1413;DHT22;701;52.526;13.408;2023-12-04T09:07:50;1.90;16.20
1413;DHT22;701;52.526;13.408;2023-12-04T09:10:15;1.90;16.20
1413;DHT22;701;52.526;13.408;2023-12-04T09:12:42;2.00;16.20
1413;DHT22;701;52.526;13.408;2023-12-04T09:15:08;2.00;16.20
1413;DHT22;701;52.526;13.408;2023-12-04T09:17:34;2.00;16.20
1413;DHT22;701;52.526;13.408;2023-12-04T09:19:59;2.10;16.30
1413;DHT22;701;52.526;13.408;2023-12-04T09:22:25;2.00;15.40
1413;DHT22;701;52.526;13.408;2023-12-04T09:24:51;2.10;15.80
1413;DHT22;701;52.526;13.408;2023-12-04T09:27:16;2.00;15.30
1413;DHT22;701;52.526;13.408;2023-12-04T09:29:42;2.00;15.70
1413;DHT22;701;52.526;13.408;2023-12-04T09:32:09;2.10;15.40
1413;DHT22;701;52.526;13.408;2023-12-04T09:34:35;2.10;15.40
1413;DHT22;701;52.526;13.408;2023-12-04T09:37:01;2.10;15.40
1413;DHT22;701;52.526;13.408;2023-12-04T09:39:28;2.10;14.80
1413;DHT22;701;52.526;13.408;2023-12-04T09:41:55;2.10;14.80
1413;DHT22;701;52.526;13.408;2023-12-04T09:44:22;2.00;14.60
1413;DHT22;701;52.526;13.408;2023-12-04T09:46:50;2.00;14.50
1413;DHT22;701;52.526;13.408;2023-12-04T09:49:17;2.00;15.10
1413;DHT22;701;52.526;13.408;2023-12-04T09:51:44;2.10;14.80
1413;DHT22;701;52.526;13.408;2023-12-04T09:54:11;2.10;14.30
1413;DHT22;701;52.526;13.408;2023-12-04T09:56:38;2.10;14.30
1413;DHT22;701;52.526;13.408;2023-12-04T09:59:06;2.10;14.10
1413;DHT22;701;52.526;13.408;2023-12-04T10:01:33;2.20;14.50
1413;DHT22;701;52.526;13.408;2023-12-04T10:04:02;2.20;14.10
1413;DHT22;701;52.526;13.408;2023-12-04T10:06:30;2.30;14.30
1413;DHT22;701;52.526;13.408;2023-12-04T10:08:57;2.40;13.60
1413;DHT22;701;52.526;13.408;2023-12-04T10:11:26;2.40;13.30
1413;DHT22;701;52.526;13.408;2023-12-04T10:13:52;2.40;13.50
1413;DHT22;701;52.526;13.408;2023-12-04T10:16:35;2.40;13.20
1413;DHT22;701;52.526;13.408;2023-12-04T10:19:21;2.40;14.30
1413;DHT22;701;52.526;13.408;2023-12-04T10:21:50;2.50;14.10
1413;DHT22;701;52.526;13.408;2023-12-04T10:24:39;2.60;13.80
1413;DHT22;701;52.526;13.408;2023-12-04T10:27:06;2.60;14.00
1413;DHT22;701;52.526;13.408;2023-12-04T10:29:45;2.60;13.50
1413;DHT22;701;52.526;13.408;2023-12-04T10:32:12;2.60;13.00
1413;DHT22;701;52.526;13.408;2023-12-04T10:34:40;2.50;12.90
1413;DHT22;701;52.526;13.408;2023-12-04T10:37:10;2.60;13.60
1413;DHT22;701;52.526;13.408;2023-12-04T10:39:46;2.60;13.00
1413;DHT22;701;52.526;13.408;2023-12-04T10:42:29;2.70;13.30
1413;DHT22;701;52.526;13.408;2023-12-04T10:44:59;2.80;13.10
1413;DHT22;701;52.526;13.408;2023-12-04T10:47:26;2.80;12.70
1413;DHT22;701;52.526;13.408;2023-12-04T10:49:53;2.80;12.40
1413;DHT22;701;52.526;13.408;2023-12-04T10:52:19;2.90;12.60
1413;DHT22;701;52.526;13.408;2023-12-04T10:54:48;3.00;12.60
1413;DHT22;701;52.526;13.408;2023-12-04T10:57:29;3.00;12.30
1413;DHT22;701;52.526;13.408;2023-12-04T10:59:59;3.10;12.40
1413;DHT22;701;52.526;13.408;2023-12-04T11:02:29;3.10;11.90
1413;DHT22;701;52.526;13.408;2023-12-04T11:05:16;3.20;12.00
1413;DHT22;701;52.526;13.408;2023-12-04T11:08:01;3.30;12.10
1413;DHT22;701;52.526;13.408;2023-12-04T11:10:29;3.30;12.00
1413;DHT22;701;52.526;13.408;2023-12-04T11:13:00;3.30;11.30
1413;DHT22;701;52.526;13.408;2023-12-04T11:15:30;3.30;11.30
1413;DHT22;701;52.526;13.408;2023-12-04T11:17:59;3.10;11.20
1413;DHT22;701;52.526;13.408;2023-12-04T11:20:32;3.10;11.60
1413;DHT22;701;52.526;13.408;2023-12-04T11:23:00;3.10;11.70
1413;DHT22;701;52.526;13.408;2023-12-04T11:25:28;3.10;11.50
1413;DHT22;701;52.526;13.408;2023-12-04T11:27:55;3.00;11.60
1413;DHT22;701;52.526;13.408;2023-12-04T11:30:21;3.00;11.80
1413;DHT22;701;52.526;13.408;2023-12-04T11:32:50;2.90;12.00
1413;DHT22;701;52.526;13.408;2023-12-04T11:35:17;2.90;12.20
1413;DHT22;701;52.526;13.408;2023-12-04T11:37:47;3.00;12.10
1413;DHT22;701;52.526;13.408;2023-12-04T11:40:15;3.00;12.20
1413;DHT22;701;52.526;13.408;2023-12-04T11:42:42;3.00;12.20
1413;DHT22;701;52.526;13.408;2023-12-04T11:45:08;2.90;11.80
1413;DHT22;701;52.526;13.408;2023-12-04T11:47:55;2.90;12.20
1413;DHT22;701;52.526;13.408;2023-12-04T11:50:25;2.90;12.00
1413;DHT22;701;52.526;13.408;2023-12-04T11:52:51;2.90;12.20
1413;DHT22;701;52.526;13.408;2023-12-04T11:55:20;3.00;12.40
1413;DHT22;701;52.526;13.408;2023-12-04T11:57:50;3.00;12.10
1413;DHT22;701;52.526;13.408;2023-12-04T12:03:01;3.00;12.00
1413;DHT22;701;52.526;13.408;2023-12-04T12:05:28;2.90;12.00
1413;DHT22;701;52.526;13.408;2023-12-04T12:07:54;2.90;12.30
1413;DHT22;701;52.526;13.408;2023-12-04T12:10:20;3.00;12.10
1413;DHT22;701;52.526;13.408;2023-12-04T12:12:47;3.00;12.10
1413;DHT22;701;52.526;13.408;2023-12-04T12:15:13;3.00;12.30
1413;DHT22;701;52.526;13.408;2023-12-04T12:17:40;3.00;12.10
1413;DHT22;701;52.526;13.408;2023-12-04T12:20:07;3.00;12.20
1413;DHT22;701;52.526;13.408;2023-12-04T12:22:34;3.00;12.30
1413;DHT22;701;52.526;13.408;2023-12-04T12:25:00;3.00;12.30
1413;DHT22;701;52.526;13.408;2023-12-04T12:27:27;2.90;12.40
1413;DHT22;701;52.526;13.408;2023-12-04T12:29:53;2.90;12.70
1413;DHT22;701;52.526;13.408;2023-12-04T12:32:19;2.90;12.60
1413;DHT22;701;52.526;13.408;2023-12-04T12:34:46;2.90;12.60
1413;DHT22;701;52.526;13.408;2023-12-04T12:37:12;2.90;12.70
1413;DHT22;701;52.526;13.408;2023-12-04T12:39:39;2.90;12.70
1413;DHT22;701;52.526;13.408;2023-12-04T12:42:05;3.00;13.10
1413;DHT22;701;52.526;13.408;2023-12-04T12:44:38;3.00;13.60
1413;DHT22;701;52.526;13.408;2023-12-04T12:47:08;3.10;12.90
1413;DHT22;701;52.526;13.408;2023-12-04T12:49:34;3.10;12.60
1413;DHT22;701;52.526;13.408;2023-12-04T12:52:02;3.20;12.70
1413;DHT22;701;52.526;13.408;2023-12-04T12:54:28;3.20;12.40
1413;DHT22;701;52.526;13.408;2023-12-04T12:57:01;3.20;12.40
1413;DHT22;701;52.526;13.408;2023-12-04T12:59:27;3.20;12.50
1413;DHT22;701;52.526;13.408;2023-12-04T13:01:54;3.20;12.40
1413;DHT22;701;52.526;13.408;2023-12-04T13:04:19;3.30;12.60
1413;DHT22;701;52.526;13.408;2023-12-04T13:06:45;3.20;12.50
1413;DHT22;701;52.526;13.408;2023-12-04T13:09:12;3.20;12.70
1413;DHT22;701;52.526;13.408;2023-12-04T13:11:46;3.20;12.80
1413;DHT22;701;52.526;13.408;2023-12-04T13:14:11;3.20;12.60
1413;DHT22;701;52.526;13.408;2023-12-04T13:16:37;3.10;12.70
1413;DHT22;701;52.526;13.408;2023-12-04T13:19:03;3.10;12.80
1413;DHT22;701;52.526;13.408;2023-12-04T13:21:28;3.00;13.10
1413;DHT22;701;52.526;13.408;2023-12-04T13:23:56;3.00;13.20
1413;DHT22;701;52.526;13.408;2023-12-04T13:26:22;3.00;13.20
1413;DHT22;701;52.526;13.408;2023-12-04T13:28:48;2.80;13.10
1413;DHT22;701;52.526;13.408;2023-12-04T13:31:14;2.80;13.10
1413;DHT22;701;52.526;13.408;2023-12-04T13:33:39;2.70;13.10
1413;DHT22;701;52.526;13.408;2023-12-04T13:36:06;2.70;13.00
1413;DHT22;701;52.526;13.408;2023-12-04T13:38:31;2.60;13.60
1413;DHT22;701;52.526;13.408;2023-12-04T13:41:00;2.60;13.70
1413;DHT22;701;52.526;13.408;2023-12-04T13:43:34;2.50;13.90
1413;DHT22;701;52.526;13.408;2023-12-04T13:46:15;2.50;14.00
1413;DHT22;701;52.526;13.408;2023-12-04T13:48:41;2.40;14.10
1413;DHT22;701;52.526;13.408;2023-12-04T13:51:11;2.40;14.70
1413;DHT22;701;52.526;13.408;2023-12-04T13:53:38;2.40;14.20
1413;DHT22;701;52.526;13.408;2023-12-04T13:56:09;2.40;14.30
1413;DHT22;701;52.526;13.408;2023-12-04T13:58:38;2.30;14.50
1413;DHT22;701;52.526;13.408;2023-12-04T14:01:10;2.20;14.60
1413;DHT22;701;52.526;13.408;2023-12-04T14:03:43;2.20;14.90
1413;DHT22;701;52.526;13.408;2023-12-04T14:06:09;2.10;15.00
1413;DHT22;701;52.526;13.408;2023-12-04T14:08:35;2.10;15.00
1413;DHT22;701;52.526;13.408;2023-12-04T14:11:05;2.00;15.20
1413;DHT22;701;52.526;13.408;2023-12-04T14:13:34;2.00;15.40
1413;DHT22;701;52.526;13.408;2023-12-04T14:16:00;1.90;15.80
1413;DHT22;701;52.526;13.408;2023-12-04T14:18:29;1.80;15.90
1413;DHT22;701;52.526;13.408;2023-12-04T14:20:56;1.70;16.10
1413;DHT22;701;52.526;13.408;2023-12-04T14:23:23;1.70;16.00
1413;DHT22;701;52.526;13.408;2023-12-04T14:25:49;1.60;16.20
1413;DHT22;701;52.526;13.408;2023-12-04T14:28:15;1.60;16.50
1413;DHT22;701;52.526;13.408;2023-12-04T14:30:40;1.60;16.80
1413;DHT22;701;52.526;13.408;2023-12-04T14:33:07;1.50;16.70
1413;DHT22;701;52.526;13.408;2023-12-04T14:35:32;1.50;16.80
1413;DHT22;701;52.526;13.408;2023-12-04T14:37:58;1.40;17.00
1413;DHT22;701;52.526;13.408;2023-12-04T14:40:24;1.40;17.20
1413;DHT22;701;52.526;13.408;2023-12-04T14:42:50;1.30;17.30
1413;DHT22;701;52.526;13.408;2023-12-04T14:45:16;1.30;17.30
1413;DHT22;701;52.526;13.408;2023-12-04T14:47:43;1.30;17.60
1413;DHT22;701;52.526;13.408;2023-12-04T14:50:09;1.20;17.70
1413;DHT22;701;52.526;13.408;2023-12-04T14:52:38;1.20;18.00
1413;DHT22;701;52.526;13.408;2023-12-04T14:55:11;1.20;17.80
1413;DHT22;701;52.526;13.408;2023-12-04T14:57:51;1.10;17.90
1413;DHT22;701;52.526;13.408;2023-12-04T15:00:16;1.20;18.10
1413;DHT22;701;52.526;13.408;2023-12-04T15:03:01;1.10;18.30
1413;DHT22;701;52.526;13.408;2023-12-04T15:05:34;1.10;18.40
1413;DHT22;701;52.526;13.408;2023-12-04T15:08:18;1.10;18.60
1413;DHT22;701;52.526;13.408;2023-12-04T15:10:51;1.20;18.60
1413;DHT22;701;52.526;13.408;2023-12-04T15:13:28;1.20;18.60
1413;DHT22;701;52.526;13.408;2023-12-04T15:16:21;1.20;18.60
1413;DHT22;701;52.526;13.408;2023-12-04T15:19:08;1.10;18.50
1413;DHT22;701;52.526;13.408;2023-12-04T15:21:58;1.10;18.60
1413;DHT22;701;52.526;13.408;2023-12-04T15:24:24;1.10;18.70
1413;DHT22;701;52.526;13.408;2023-12-04T15:26:50;1.10;18.70
1413;DHT22;701;52.526;13.408;2023-12-04T15:29:17;1.20;18.60
1413;DHT22;701;52.526;13.408;2023-12-04T15:31:48;1.20;18.60
1413;DHT22;701;52.526;13.408;2023-12-04T15:34:14;1.20;18.70
1413;DHT22;701;52.526;13.408;2023-12-04T15:36:40;1.20;18.60
1413;DHT22;701;52.526;13.408;2023-12-04T15:39:05;1.20;18.60
1413;DHT22;701;52.526;13.408;2023-12-04T15:41:31;1.20;18.50
1413;DHT22;701;52.526;13.408;2023-12-04T15:43:57;1.30;18.40
1413;DHT22;701;52.526;13.408;2023-12-04T15:46:22;1.30;18.40
1413;DHT22;701;52.526;13.408;2023-12-04T15:48:48;1.30;18.20
1413;DHT22;701;52.526;13.408;2023-12-04T15:51:14;1.20;18.40
1413;DHT22;701;52.526;13.408;2023-12-04T15:53:43;1.20;18.60
1413;DHT22;701;52.526;13.408;2023-12-04T15:56:10;1.20;18.50
1413;DHT22;701;52.526;13.408;2023-12-04T15:58:36;1.20;18.90
1413;DHT22;701;52.526;13.408;2023-12-04T16:01:02;1.20;19.00
1413;DHT22;701;52.526;13.408;2023-12-04T16:03:30;1.20;19.00
1413;DHT22;701;52.526;13.408;2023-12-04T16:05:56;1.20;19.30
1413;DHT22;701;52.526;13.408;2023-12-04T16:08:22;1.20;19.10
1413;DHT22;701;52.526;13.408;2023-12-04T16:10:47;1.20;19.10
1413;DHT22;701;52.526;13.408;2023-12-04T16:13:14;1.20;19.00